createdAt,value
2019-01-22T00:00:54.937Z,33.00
2019-01-22T00:01:54.946Z,32.10
2019-01-22T00:02:54.961Z,31.70
2019-01-22T00:03:54.971Z,31.80
2019-01-22T00:04:54.983Z,30.30
2019-01-22T00:05:54.997Z,29.10
2019-01-22T00:06:55.008Z,33.00
2019-01-22T00:07:55.016Z,31.90
2019-01-22T00:08:55.030Z,30.70
2019-01-22T00:09:55.039Z,32.10
2019-01-22T00:10:55.055Z,32.10
2019-01-22T00:11:55.074Z,28.90
2019-01-22T00:12:55.076Z,30.30
2019-01-22T00:13:55.089Z,31.90
2019-01-22T00:14:55.101Z,30.80
2019-01-22T00:15:55.110Z,30.80
2019-01-22T00:16:55.123Z,30.50
2019-01-22T00:17:55.133Z,31.10
2019-01-22T00:18:55.146Z,32.70
2019-01-22T00:19:55.155Z,30.50
2019-01-22T00:20:55.170Z,30.30
2019-01-22T00:21:55.186Z,30.80
2019-01-22T00:22:55.193Z,31.70
2019-01-22T00:23:55.203Z,30.70
2019-01-22T00:24:55.218Z,29.70
2019-01-22T00:25:55.227Z,29.60
2019-01-22T00:26:55.236Z,28.70
2019-01-22T00:27:55.247Z,29.90
2019-01-22T00:28:55.261Z,30.00
2019-01-22T00:29:55.272Z,30.30
2019-01-22T00:30:55.286Z,30.60
2019-01-22T00:31:55.293Z,29.70
2019-01-22T00:32:55.305Z,30.90
2019-01-22T00:33:55.320Z,30.60
2019-01-22T00:34:55.328Z,30.80
2019-01-22T00:35:55.339Z,27.70
2019-01-22T00:36:55.352Z,29.60
2019-01-22T00:37:55.362Z,29.90
2019-01-22T00:38:55.375Z,28.80
2019-01-22T00:39:55.384Z,29.40
2019-01-22T00:40:55.399Z,29.80
2019-01-22T00:41:55.409Z,30.40
2019-01-22T00:42:55.423Z,30.90
2019-01-22T00:43:55.430Z,29.70
2019-01-22T00:44:55.443Z,28.90
2019-01-22T00:45:55.453Z,29.50
2019-01-22T00:46:55.465Z,29.80
2019-01-22T00:47:55.476Z,29.60
2019-01-22T00:48:55.488Z,30.00
2019-01-22T00:49:55.502Z,28.60
2019-01-22T00:50:55.510Z,27.70
2019-01-22T00:51:55.524Z,29.70
2019-01-22T00:52:55.535Z,30.90
2019-01-22T00:53:55.544Z,29.10
2019-01-22T00:54:55.559Z,30.50
2019-01-22T00:55:55.567Z,29.30
2019-01-22T00:56:55.578Z,30.40
2019-01-22T00:57:55.592Z,28.80
2019-01-22T00:58:55.603Z,30.10
2019-01-22T00:59:55.614Z,30.90
2019-01-22T01:00:55.623Z,31.30
2019-01-22T01:01:55.635Z,32.60
2019-01-22T01:02:55.650Z,31.90
2019-01-22T01:03:55.660Z,31.20
2019-01-22T01:04:55.668Z,30.30
2019-01-22T01:05:55.683Z,28.30
2019-01-22T01:06:55.691Z,29.00
2019-01-22T01:07:55.704Z,29.40
2019-01-22T01:08:55.713Z,30.30
2019-01-22T01:09:55.724Z,30.20
2019-01-22T01:10:55.739Z,30.70
2019-01-22T01:11:55.746Z,29.40
2019-01-22T01:12:55.757Z,29.90
2019-01-22T01:13:55.768Z,28.80
2019-01-22T01:14:55.782Z,31.90
2019-01-22T01:15:55.790Z,30.70
2019-01-22T01:16:55.802Z,28.90
2019-01-22T01:17:55.815Z,28.50
2019-01-22T01:18:55.825Z,29.20
2019-01-22T01:19:55.834Z,26.90
2019-01-22T01:20:55.845Z,30.10
2019-01-22T01:21:55.857Z,30.00
2019-01-22T01:22:55.868Z,30.30
2019-01-22T01:23:55.881Z,30.80
2019-01-22T01:24:55.889Z,30.80
2019-01-22T01:25:55.904Z,30.60
2019-01-22T01:26:55.912Z,29.30
2019-01-22T01:27:55.925Z,27.00
2019-01-22T01:28:55.933Z,30.10
2019-01-22T01:29:55.946Z,29.30
2019-01-22T01:30:55.958Z,30.80
2019-01-22T01:31:55.967Z,28.80
2019-01-22T01:32:56.017Z,29.80
2019-01-22T01:33:55.988Z,29.60
2019-01-22T01:34:56.004Z,27.60
2019-01-22T01:35:56.009Z,28.70
2019-01-22T01:36:56.019Z,30.30
2019-01-22T01:37:56.033Z,29.80
2019-01-22T01:38:56.045Z,28.40
2019-01-22T01:39:56.053Z,28.50
2019-01-22T01:40:56.065Z,30.30
2019-01-22T01:41:56.076Z,30.20
2019-01-22T01:42:56.086Z,28.60
2019-01-22T01:43:56.096Z,28.60
2019-01-22T01:44:56.106Z,29.20
2019-01-22T01:45:56.119Z,29.80
2019-01-22T01:46:56.128Z,31.50
2019-01-22T01:47:56.138Z,30.30
2019-01-22T01:48:56.150Z,30.60
2019-01-22T01:49:56.162Z,28.30
2019-01-22T01:50:56.174Z,29.50
2019-01-22T01:51:56.182Z,34.70
2019-01-22T01:52:56.194Z,41.90
2019-01-22T01:53:56.207Z,31.40
2019-01-22T01:54:56.216Z,31.30
2019-01-22T01:55:56.224Z,29.00
2019-01-22T01:56:56.236Z,28.70
2019-01-22T01:57:56.246Z,28.90
2019-01-22T01:58:56.260Z,29.80
2019-01-22T01:59:56.271Z,30.20
2019-01-22T02:00:56.277Z,30.90
2019-01-22T02:01:56.292Z,30.10
2019-01-22T02:02:56.303Z,30.30
2019-01-22T02:03:56.309Z,28.10
2019-01-22T02:04:56.322Z,29.00
2019-01-22T02:05:56.336Z,29.40
2019-01-22T02:06:56.342Z,28.50
2019-01-22T02:07:56.352Z,31.90
2019-01-22T02:08:56.365Z,31.40
2019-01-22T02:09:56.377Z,30.00
2019-01-22T02:10:56.387Z,29.40
2019-01-22T02:11:56.396Z,29.70
2019-01-22T02:12:56.405Z,31.70
2019-01-22T02:13:56.415Z,30.90
2019-01-22T02:14:56.429Z,30.50
2019-01-22T02:15:56.440Z,29.90
2019-01-22T02:16:56.451Z,31.60
2019-01-22T02:17:56.458Z,31.00
2019-01-22T02:18:56.471Z,30.20
2019-01-22T02:19:56.480Z,31.10
2019-01-22T02:20:56.491Z,28.60
2019-01-22T02:21:56.502Z,30.30
2019-01-22T02:22:56.511Z,30.40
2019-01-22T02:23:56.521Z,31.80
2019-01-22T02:24:56.532Z,30.70
2019-01-22T02:25:56.550Z,28.20
2019-01-22T02:26:56.556Z,29.30
2019-01-22T02:27:56.566Z,29.90
2019-01-22T02:28:56.573Z,30.00
2019-01-22T02:29:56.584Z,30.40
2019-01-22T02:30:56.597Z,30.50
2019-01-22T02:31:56.707Z,29.20
2019-01-22T02:32:56.618Z,30.20
2019-01-22T02:33:56.626Z,27.50
2019-01-22T02:34:56.640Z,28.00
2019-01-22T02:35:56.650Z,29.40
2019-01-22T02:36:56.658Z,28.00
2019-01-22T02:37:56.668Z,31.00
2019-01-22T02:38:56.681Z,29.70
2019-01-22T02:39:56.688Z,28.00
2019-01-22T02:40:56.702Z,29.10
2019-01-22T02:41:56.713Z,28.80
2019-01-22T02:42:56.720Z,30.70
2019-01-22T02:43:56.733Z,29.80
2019-01-22T02:44:56.744Z,29.50
2019-01-22T02:45:56.754Z,27.70
2019-01-22T02:46:56.762Z,30.10
2019-01-22T02:47:56.776Z,30.00
2019-01-22T02:48:56.783Z,29.50
2019-01-22T02:49:56.796Z,29.30
2019-01-22T02:50:56.807Z,30.90
2019-01-22T02:51:56.814Z,29.50
2019-01-22T02:52:56.825Z,29.80
2019-01-22T02:53:56.838Z,29.00
2019-01-22T02:54:56.846Z,30.30
2019-01-22T02:55:56.856Z,29.80
2019-01-22T02:56:56.866Z,30.50
2019-01-22T02:57:56.878Z,29.20
2019-01-22T02:58:56.887Z,30.50
2019-01-22T02:59:56.900Z,30.20
2019-01-22T03:00:56.907Z,29.20
2019-01-22T03:01:56.923Z,30.70
2019-01-22T03:02:56.928Z,31.30
2019-01-22T03:03:56.938Z,29.00
2019-01-22T03:04:56.951Z,30.90
2019-01-22T03:05:56.962Z,29.50
2019-01-22T03:06:56.971Z,30.60
2019-01-22T03:07:56.982Z,31.00
2019-01-22T03:08:56.990Z,31.10
2019-01-22T03:09:57.000Z,29.60
2019-01-22T03:10:57.011Z,29.60
2019-01-22T03:11:57.020Z,28.90
2019-01-22T03:12:57.034Z,31.30
2019-01-22T03:13:57.044Z,28.80
2019-01-22T03:14:57.055Z,29.80
2019-01-22T03:15:57.063Z,30.60
2019-01-22T03:16:57.073Z,30.20
2019-01-22T03:17:57.086Z,28.40
2019-01-22T03:18:57.097Z,29.50
2019-01-22T03:19:57.103Z,29.80
2019-01-22T03:20:57.114Z,30.20
2019-01-22T03:21:57.127Z,31.60
2019-01-22T03:22:57.137Z,28.80
2019-01-22T03:23:57.145Z,29.80
2019-01-22T03:24:57.158Z,29.50
2019-01-22T03:25:57.167Z,30.40
2019-01-22T03:26:57.176Z,30.10
2019-01-22T03:27:57.186Z,29.20
2019-01-22T03:28:57.202Z,30.70
2019-01-22T03:29:57.214Z,28.80
2019-01-22T03:30:57.221Z,30.00
2019-01-22T03:31:57.230Z,30.60
2019-01-22T03:32:57.237Z,29.10
2019-01-22T03:33:57.247Z,30.60
2019-01-22T03:34:57.261Z,29.90
2019-01-22T03:35:57.268Z,29.00
2019-01-22T03:36:57.278Z,28.90
2019-01-22T03:37:57.287Z,29.70
2019-01-22T03:38:57.302Z,29.60
2019-01-22T03:39:57.316Z,30.20
2019-01-22T03:40:57.320Z,29.60
2019-01-22T03:41:57.330Z,29.70
2019-01-22T03:42:57.341Z,28.20
2019-01-22T03:43:57.356Z,29.60
2019-01-22T03:44:57.361Z,28.70
2019-01-22T03:45:57.409Z,27.90
2019-01-22T03:46:57.379Z,27.40
2019-01-22T03:47:57.389Z,27.90
2019-01-22T03:48:57.402Z,28.60
2019-01-22T03:49:57.409Z,28.10
2019-01-22T03:50:57.422Z,30.00
2019-01-22T03:51:57.431Z,28.50
2019-01-22T03:52:57.439Z,28.70
2019-01-22T03:53:57.457Z,27.70
2019-01-22T03:54:57.459Z,28.30
2019-01-22T03:55:57.471Z,28.00
2019-01-22T03:56:57.482Z,26.60
2019-01-22T03:57:57.492Z,28.50
2019-01-22T03:58:57.500Z,26.00
2019-01-22T03:59:57.513Z,27.00
2019-01-22T04:00:57.521Z,28.80
2019-01-22T04:01:57.533Z,27.60
2019-01-22T04:02:57.540Z,28.10
2019-01-22T04:03:57.555Z,26.00
2019-01-22T04:04:57.559Z,26.50
2019-01-22T04:05:57.569Z,26.60
2019-01-22T04:06:57.582Z,25.90
2019-01-22T04:07:57.590Z,26.50
2019-01-22T04:08:57.605Z,26.90
2019-01-22T04:09:57.612Z,26.70
2019-01-22T04:10:57.624Z,26.20
2019-01-22T04:11:57.630Z,26.10
2019-01-22T04:12:57.640Z,26.70
2019-01-22T04:13:57.649Z,27.10
2019-01-22T04:14:57.659Z,24.20
2019-01-22T04:15:57.669Z,24.70
2019-01-22T04:16:57.681Z,26.50
2019-01-22T04:17:57.695Z,27.40
2019-01-22T04:18:57.707Z,25.50
2019-01-22T04:19:57.711Z,24.50
2019-01-22T04:20:57.825Z,26.30
2019-01-22T04:21:57.732Z,25.90
2019-01-22T04:22:57.739Z,25.60
2019-01-22T04:24:01.851Z,26.10
2019-01-22T04:24:57.761Z,26.30
2019-01-22T04:25:57.773Z,25.40
2019-01-22T04:26:57.782Z,23.00
2019-01-22T04:27:57.792Z,25.60
2019-01-22T04:28:57.801Z,24.50
2019-01-22T04:29:57.812Z,24.00
2019-01-22T04:30:57.820Z,25.50
2019-01-22T04:31:57.830Z,24.30
2019-01-22T04:32:57.842Z,26.40
2019-01-22T04:33:57.850Z,24.40
2019-01-22T04:34:57.862Z,25.10
2019-01-22T04:35:57.871Z,24.60
2019-01-22T04:36:57.883Z,23.60
2019-01-22T04:37:57.894Z,25.20
2019-01-22T04:38:57.904Z,23.50
2019-01-22T04:39:57.912Z,24.30
2019-01-22T04:40:57.920Z,23.50
2019-01-22T04:41:57.934Z,21.90
2019-01-22T04:42:57.943Z,23.40
2019-01-22T04:43:57.956Z,23.00
2019-01-22T04:44:57.961Z,24.20
2019-01-22T04:45:57.970Z,24.40
2019-01-22T04:46:57.980Z,23.90
2019-01-22T04:47:57.990Z,23.10
2019-01-22T04:48:58.002Z,24.60
2019-01-22T04:49:58.012Z,24.30
2019-01-22T04:50:58.020Z,25.20
2019-01-22T04:51:58.030Z,23.80
2019-01-22T04:52:58.043Z,23.50
2019-01-22T04:53:58.052Z,25.00
2019-01-22T04:54:58.062Z,24.70
2019-01-22T04:55:58.073Z,24.30
2019-01-22T04:56:58.086Z,22.80
2019-01-22T04:57:58.093Z,22.70
2019-01-22T04:58:58.100Z,22.00
2019-01-22T04:59:58.112Z,22.90
2019-01-22T05:00:58.120Z,23.00
2019-01-22T05:01:58.130Z,23.00
2019-01-22T05:02:58.143Z,23.10
2019-01-22T05:03:58.153Z,22.50
2019-01-22T05:04:58.162Z,22.30
2019-01-22T05:05:58.170Z,22.30
2019-01-22T05:06:58.181Z,22.20
2019-01-22T05:07:58.197Z,23.40
2019-01-22T05:08:58.203Z,23.60
2019-01-22T05:09:58.222Z,22.90
2019-01-22T05:10:58.223Z,22.10
2019-01-22T05:11:58.232Z,22.50
2019-01-22T05:12:58.243Z,23.90
2019-01-22T05:13:58.252Z,23.40
2019-01-22T05:14:58.263Z,23.30
2019-01-22T05:15:58.270Z,23.70
2019-01-22T05:16:58.281Z,23.40
2019-01-22T05:17:58.293Z,21.60
2019-01-22T05:18:58.309Z,22.00
2019-01-22T05:19:58.310Z,21.80
2019-01-22T05:20:58.326Z,23.20
2019-01-22T05:21:58.333Z,22.90
2019-01-22T05:22:58.349Z,22.70
2019-01-22T05:23:58.352Z,23.30
2019-01-22T05:24:58.364Z,23.00
2019-01-22T05:25:58.374Z,22.50
2019-01-22T05:26:58.383Z,26.00
2019-01-22T05:27:58.393Z,24.40
2019-01-22T05:28:58.399Z,25.70
2019-01-22T05:29:58.414Z,23.80
2019-01-22T05:30:58.427Z,22.90
2019-01-22T05:31:58.429Z,23.20
2019-01-22T05:32:58.443Z,25.80
2019-01-22T05:33:58.452Z,24.80
2019-01-22T05:34:58.473Z,23.30
2019-01-22T05:35:58.471Z,22.50
2019-01-22T05:36:58.482Z,23.50
2019-01-22T05:37:58.494Z,23.50
2019-01-22T05:38:58.503Z,23.20
2019-01-22T05:39:58.513Z,22.90
2019-01-22T05:40:58.519Z,23.60
2019-01-22T05:41:58.531Z,24.00
2019-01-22T05:42:58.540Z,23.50
2019-01-22T05:43:58.552Z,23.80
2019-01-22T05:44:58.563Z,23.70
2019-01-22T05:45:58.571Z,25.00
2019-01-22T05:46:58.580Z,25.00
2019-01-22T05:47:58.595Z,24.60
2019-01-22T05:48:58.599Z,22.70
2019-01-22T05:49:58.609Z,23.00
2019-01-22T05:50:58.621Z,24.10
2019-01-22T05:51:58.629Z,24.10
2019-01-22T05:52:58.641Z,26.20
2019-01-22T05:53:58.653Z,26.70
2019-01-22T05:54:58.693Z,24.50
2019-01-22T05:55:58.671Z,23.90
2019-01-22T05:56:58.682Z,24.50
2019-01-22T05:57:58.692Z,24.00
2019-01-22T05:58:58.700Z,24.20
2019-01-22T05:59:58.711Z,23.40
2019-01-22T06:00:58.722Z,23.60
2019-01-22T06:01:58.729Z,24.50
2019-01-22T06:02:58.739Z,23.40
2019-01-22T06:03:58.753Z,23.30
2019-01-22T06:04:58.760Z,22.00
2019-01-22T06:05:59.884Z,25.60
2019-01-22T06:06:58.780Z,23.90
2019-01-22T06:07:58.791Z,23.20
2019-01-22T06:08:58.800Z,23.90
2019-01-22T06:09:58.810Z,23.20
2019-01-22T06:10:58.819Z,23.10
2019-01-22T06:11:58.830Z,23.20
2019-01-22T06:12:58.840Z,23.20
2019-01-22T06:13:58.856Z,22.60
2019-01-22T06:14:58.859Z,22.20
2019-01-22T06:15:58.868Z,22.80
2019-01-22T06:16:58.878Z,23.70
2019-01-22T06:17:58.888Z,22.30
2019-01-22T06:18:58.902Z,22.50
2019-01-22T06:19:58.910Z,21.60
2019-01-22T06:20:58.919Z,21.90
2019-01-22T06:21:58.930Z,21.70
2019-01-22T06:22:58.940Z,21.70
2019-01-22T06:23:58.948Z,23.60
2019-01-22T06:24:58.960Z,22.10
2019-01-22T06:25:58.970Z,21.40
2019-01-22T06:26:58.979Z,22.60
2019-01-22T06:27:58.991Z,22.80
2019-01-22T06:28:58.999Z,19.60
2019-01-22T06:29:59.010Z,19.70
2019-01-22T06:30:59.017Z,20.70
2019-01-22T06:31:59.030Z,21.20
2019-01-22T06:32:59.039Z,21.30
2019-01-22T06:33:59.049Z,21.50
2019-01-22T06:34:59.064Z,21.30
2019-01-22T06:35:59.067Z,21.70
2019-01-22T06:36:59.078Z,22.10
2019-01-22T06:37:59.087Z,21.00
2019-01-22T06:38:59.101Z,21.20
2019-01-22T06:39:59.108Z,22.00
2019-01-22T06:40:59.116Z,22.40
2019-01-22T06:41:59.127Z,21.00
2019-01-22T06:42:59.139Z,21.60
2019-01-22T06:43:59.148Z,22.50
2019-01-22T06:44:59.158Z,21.00
2019-01-22T06:45:59.169Z,21.20
2019-01-22T06:46:59.177Z,21.90
2019-01-22T06:47:59.186Z,22.20
2019-01-22T06:48:59.201Z,22.80
2019-01-22T06:49:59.209Z,22.50
2019-01-22T06:50:59.219Z,22.00
2019-01-22T06:51:59.227Z,21.80
2019-01-22T06:52:59.235Z,23.10
2019-01-22T06:53:59.249Z,22.80
2019-01-22T06:54:59.256Z,22.20
2019-01-22T06:55:59.267Z,22.40
2019-01-22T06:56:59.276Z,22.20
2019-01-22T06:57:59.289Z,21.50
2019-01-22T06:58:59.297Z,22.10
2019-01-22T06:59:59.307Z,24.90
2019-01-22T07:00:59.318Z,24.20
2019-01-22T07:01:59.326Z,23.20
2019-01-22T07:02:59.334Z,22.90
2019-01-22T07:03:59.344Z,22.60
2019-01-22T07:04:59.356Z,23.50
2019-01-22T07:05:59.366Z,23.60
2019-01-22T07:06:59.374Z,23.80
2019-01-22T07:07:59.383Z,24.10
2019-01-22T07:08:59.394Z,21.80
2019-01-22T07:10:00.504Z,21.90
2019-01-22T07:10:59.414Z,21.40
2019-01-22T07:11:59.431Z,22.90
2019-01-22T07:12:59.433Z,21.70
2019-01-22T07:13:59.446Z,22.90
2019-01-22T07:14:59.456Z,22.10
2019-01-22T07:15:59.464Z,21.40
2019-01-22T07:16:59.472Z,22.50
2019-01-22T07:17:59.485Z,23.40
2019-01-22T07:18:59.497Z,23.50
2019-01-22T07:19:59.501Z,21.00
2019-01-22T07:20:59.512Z,21.90
2019-01-22T07:21:59.525Z,22.70
2019-01-22T07:22:59.535Z,22.10
2019-01-22T07:23:59.541Z,21.70
2019-01-22T07:25:04.655Z,21.10
2019-01-22T07:25:59.563Z,21.10
2019-01-22T07:26:59.573Z,21.90
2019-01-22T07:27:59.583Z,19.40
2019-01-22T07:28:59.594Z,21.00
2019-01-22T07:29:59.603Z,22.20
2019-01-22T07:30:59.613Z,20.90
2019-01-22T07:31:59.622Z,21.70
2019-01-22T07:32:59.632Z,21.40
2019-01-22T07:33:59.640Z,21.20
2019-01-22T07:34:59.655Z,22.40
2019-01-22T07:35:59.659Z,21.10
2019-01-22T07:36:59.670Z,22.30
2019-01-22T07:37:59.683Z,21.40
2019-01-22T07:38:59.691Z,20.50
2019-01-22T07:39:59.700Z,22.70
2019-01-22T07:40:59.712Z,21.20
2019-01-22T07:41:59.719Z,20.00
2019-01-22T07:42:59.731Z,19.40
2019-01-22T07:43:59.741Z,20.80
2019-01-22T07:44:59.748Z,20.90
2019-01-22T07:45:59.759Z,21.20
2019-01-22T07:46:59.771Z,20.00
2019-01-22T07:47:59.778Z,20.80
2019-01-22T07:48:59.790Z,21.80
2019-01-22T07:49:59.798Z,19.80
2019-01-22T07:50:59.810Z,21.20
2019-01-22T07:51:59.818Z,24.90
2019-01-22T07:52:59.827Z,20.90
2019-01-22T07:53:59.837Z,20.60
2019-01-22T07:54:59.848Z,19.60
2019-01-22T07:55:59.862Z,21.60
2019-01-22T07:56:59.871Z,20.30
2019-01-22T07:57:59.879Z,20.80
2019-01-22T07:58:59.889Z,20.90
2019-01-22T07:59:59.899Z,21.20
2019-01-22T08:00:59.906Z,28.60
2019-01-22T08:01:59.918Z,28.60
2019-01-22T08:02:59.930Z,29.30
2019-01-22T08:03:59.940Z,21.30
2019-01-22T08:04:59.946Z,20.50
2019-01-22T08:05:59.956Z,20.70
2019-01-22T08:06:59.971Z,20.80
2019-01-22T08:07:59.978Z,19.80
2019-01-22T08:08:59.988Z,20.40
2019-01-22T08:09:59.999Z,21.80
2019-01-22T08:11:00.404Z,22.10
2019-01-22T08:12:00.019Z,20.60
2019-01-22T08:13:00.026Z,20.70
2019-01-22T08:14:00.037Z,18.80
2019-01-22T08:15:00.128Z,20.70
2019-01-22T08:16:00.055Z,19.60
2019-01-22T08:17:00.068Z,19.60
2019-01-22T08:18:00.078Z,19.90
2019-01-22T08:19:00.092Z,19.20
2019-01-22T08:20:00.175Z,19.80
2019-01-22T08:21:00.105Z,19.60
2019-01-22T08:22:00.116Z,19.50
2019-01-22T08:23:00.127Z,20.40
2019-01-22T08:24:00.139Z,19.60
2019-01-22T08:25:00.831Z,19.20
2019-01-22T08:26:00.157Z,19.00
2019-01-22T08:27:00.167Z,19.80
2019-01-22T08:28:00.178Z,19.90
2019-01-22T08:29:00.186Z,19.60
2019-01-22T08:30:00.215Z,18.20
2019-01-22T08:31:00.210Z,20.60
2019-01-22T08:32:00.220Z,19.90
2019-01-22T08:33:00.230Z,18.90
2019-01-22T08:34:00.241Z,19.20
2019-01-22T08:35:00.291Z,20.00
2019-01-22T08:36:00.258Z,20.10
2019-01-22T08:37:00.271Z,19.90
2019-01-22T08:38:00.282Z,19.20
2019-01-22T08:39:00.290Z,18.80
2019-01-22T08:40:00.303Z,17.30
2019-01-22T08:41:00.310Z,20.30
2019-01-22T08:42:00.322Z,20.80
2019-01-22T08:43:00.334Z,18.80
2019-01-22T08:44:00.341Z,19.00
2019-01-22T08:45:00.351Z,19.20
2019-01-22T08:46:00.364Z,19.30
2019-01-22T08:47:00.376Z,20.10
2019-01-22T08:48:00.383Z,19.90
2019-01-22T08:49:00.394Z,19.20
2019-01-22T08:50:00.408Z,18.20
2019-01-22T08:51:00.417Z,19.60
2019-01-22T08:52:00.427Z,20.30
2019-01-22T08:53:00.436Z,19.70
2019-01-22T08:54:00.447Z,19.30
2019-01-22T08:55:00.518Z,20.30
2019-01-22T08:56:00.469Z,18.70
2019-01-22T08:57:00.483Z,20.20
2019-01-22T08:58:01.748Z,21.10
2019-01-22T08:59:00.503Z,16.70
2019-01-22T09:00:00.513Z,19.10
2019-01-22T09:01:00.525Z,18.90
2019-01-22T09:02:00.532Z,19.80
2019-01-22T09:03:00.545Z,17.70
2019-01-22T09:04:00.555Z,18.70
2019-01-22T09:05:00.566Z,20.50
2019-01-22T09:06:00.575Z,18.70
2019-01-22T09:07:00.590Z,19.30
2019-01-22T09:08:00.599Z,19.30
2019-01-22T09:09:00.608Z,18.90
2019-01-22T09:10:00.621Z,18.80
2019-01-22T09:11:00.630Z,17.80
2019-01-22T09:12:00.642Z,17.90
2019-01-22T09:13:00.655Z,19.20
2019-01-22T09:14:00.665Z,19.70
2019-01-22T09:15:00.672Z,19.40
2019-01-22T09:16:00.683Z,18.70
2019-01-22T09:17:00.693Z,18.90
2019-01-22T09:18:00.708Z,20.30
2019-01-22T09:19:00.716Z,19.20
2019-01-22T09:20:00.726Z,18.90
2019-01-22T09:21:00.741Z,20.80
2019-01-22T09:22:00.750Z,19.90
2019-01-22T09:23:00.760Z,18.70
2019-01-22T09:24:01.884Z,20.00
2019-01-22T09:25:00.782Z,20.40
2019-01-22T09:26:00.795Z,20.00
2019-01-22T09:27:00.807Z,20.10
2019-01-22T09:28:00.815Z,19.90
2019-01-22T09:29:00.828Z,19.40
2019-01-22T09:30:00.840Z,18.40
2019-01-22T09:31:00.852Z,20.30
2019-01-22T09:32:00.862Z,19.60
2019-01-22T09:33:00.873Z,18.60
2019-01-22T09:34:00.882Z,20.10
2019-01-22T09:35:00.896Z,20.00
2019-01-22T09:36:00.905Z,19.10
2019-01-22T09:37:00.916Z,20.00
2019-01-22T09:38:00.927Z,19.80
2019-01-22T09:39:00.940Z,19.80
2019-01-22T09:40:00.951Z,19.60
2019-01-22T09:41:00.962Z,19.70
2019-01-22T09:42:00.974Z,18.50
2019-01-22T09:43:00.987Z,18.50
2019-01-22T09:44:00.995Z,18.50
2019-01-22T09:45:01.007Z,18.30
2019-01-22T09:46:01.020Z,20.30
2019-01-22T09:47:01.033Z,20.00
2019-01-22T09:48:01.046Z,19.10
2019-01-22T09:49:01.059Z,18.30
2019-01-22T09:50:01.066Z,19.90
2019-01-22T09:51:01.081Z,19.40
2019-01-22T09:52:01.087Z,19.00
2019-01-22T09:53:01.099Z,19.00
2019-01-22T09:54:01.110Z,19.50
2019-01-22T09:55:01.123Z,19.50
2019-01-22T09:56:01.181Z,19.20
2019-01-22T09:57:01.145Z,19.30
2019-01-22T09:58:01.157Z,20.50
2019-01-22T09:59:01.171Z,19.40
2019-01-22T10:00:01.180Z,20.20
2019-01-22T10:01:01.191Z,19.10
2019-01-22T10:02:01.204Z,19.50
2019-01-22T10:03:01.217Z,19.60
2019-01-22T10:04:03.610Z,18.30
2019-01-22T10:05:01.271Z,19.00
2019-01-22T10:06:01.252Z,18.50
2019-01-22T10:07:01.263Z,19.10
2019-01-22T10:08:01.275Z,18.50
2019-01-22T10:09:01.291Z,19.70
2019-01-22T10:10:01.306Z,19.30
2019-01-22T10:11:01.948Z,17.70
2019-01-22T10:12:01.325Z,18.90
2019-01-22T10:13:01.335Z,18.10
2019-01-22T10:14:01.344Z,18.70
2019-01-22T10:15:01.362Z,18.50
2019-01-22T10:16:01.370Z,18.10
2019-01-22T10:17:01.382Z,19.50
2019-01-22T10:18:01.392Z,19.50
2019-01-22T10:19:01.404Z,19.40
2019-01-22T10:20:01.420Z,19.60
2019-01-22T10:21:01.429Z,19.70
2019-01-22T10:22:01.446Z,20.60
2019-01-22T10:23:01.455Z,17.60
2019-01-22T10:24:01.463Z,19.70
2019-01-22T10:25:01.478Z,19.60
2019-01-22T10:26:01.491Z,19.30
2019-01-22T10:27:01.503Z,19.30
2019-01-22T10:28:01.514Z,18.10
2019-01-22T10:29:01.526Z,20.30
2019-01-22T10:30:01.539Z,17.80
2019-01-22T10:31:01.549Z,19.20
2019-01-22T10:32:01.565Z,20.00
2019-01-22T10:33:01.573Z,20.30
2019-01-22T10:34:01.586Z,18.30
2019-01-22T10:35:01.600Z,17.80
2019-01-22T10:36:01.611Z,18.20
2019-01-22T10:37:01.624Z,18.00
2019-01-22T10:38:01.635Z,19.00
2019-01-22T10:39:01.646Z,20.00
2019-01-22T10:40:01.658Z,18.50
2019-01-22T10:41:01.673Z,18.60
2019-01-22T10:42:01.687Z,19.20
2019-01-22T10:43:01.697Z,16.60
2019-01-22T10:44:01.707Z,18.40
2019-01-22T10:45:01.720Z,18.50
2019-01-22T10:46:01.735Z,19.10
2019-01-22T10:47:01.745Z,18.20
2019-01-22T10:48:02.159Z,18.10
2019-01-22T10:49:01.771Z,17.50
2019-01-22T10:50:01.792Z,17.10
2019-01-22T10:51:01.794Z,18.20
2019-01-22T10:52:01.809Z,18.00
2019-01-22T10:53:01.821Z,18.90
2019-01-22T10:54:01.832Z,18.90
2019-01-22T10:55:01.845Z,17.90
2019-01-22T10:56:01.857Z,17.30
2019-01-22T10:57:01.871Z,17.80
2019-01-22T10:58:01.881Z,15.80
2019-01-22T10:59:01.896Z,16.90
2019-01-22T11:00:01.907Z,16.30
2019-01-22T11:01:01.925Z,15.90
2019-01-22T11:02:01.932Z,16.80
2019-01-22T11:03:01.948Z,16.90
2019-01-22T11:04:01.957Z,16.90
2019-01-22T11:05:01.971Z,16.10
2019-01-22T11:06:01.986Z,17.10
2019-01-22T11:07:01.998Z,15.40
2019-01-22T11:08:02.011Z,16.80
2019-01-22T11:09:02.026Z,17.20
2019-01-22T11:10:02.034Z,17.90
2019-01-22T11:11:02.052Z,15.50
2019-01-22T11:12:02.062Z,16.60
2019-01-22T11:13:02.076Z,15.60
2019-01-22T11:14:02.088Z,16.50
2019-01-22T11:15:02.101Z,15.40
2019-01-22T11:16:02.113Z,15.20
2019-01-22T11:17:02.124Z,15.10
2019-01-22T11:18:02.140Z,14.90
2019-01-22T11:19:02.150Z,15.20
2019-01-22T11:20:02.164Z,16.10
2019-01-22T11:21:02.179Z,15.40
2019-01-22T11:22:02.188Z,16.10
2019-01-22T11:23:02.204Z,15.40
2019-01-22T11:24:02.218Z,15.40
2019-01-22T11:25:02.226Z,15.30
2019-01-22T11:26:02.239Z,15.10
2019-01-22T11:27:02.254Z,15.10
2019-01-22T11:28:02.265Z,14.60
2019-01-22T11:29:02.277Z,14.80
2019-01-22T11:30:02.295Z,14.50
2019-01-22T11:31:02.312Z,14.10
2019-01-22T11:32:02.319Z,14.30
2019-01-22T11:33:02.334Z,15.20
2019-01-22T11:34:02.346Z,14.80
2019-01-22T11:35:02.358Z,13.80
2019-01-22T11:36:02.372Z,14.90
2019-01-22T11:37:02.384Z,14.50
2019-01-22T11:38:02.396Z,14.60
2019-01-22T11:39:02.411Z,16.60
2019-01-22T11:40:02.422Z,26.00
2019-01-22T11:41:02.436Z,20.40
2019-01-22T11:42:02.450Z,15.60
2019-01-22T11:43:02.463Z,18.20
2019-01-22T11:44:02.474Z,14.40
2019-01-22T11:45:02.486Z,14.80
2019-01-22T11:46:02.500Z,15.40
2019-01-22T11:47:02.516Z,15.60
2019-01-22T11:48:02.529Z,15.10
2019-01-22T11:49:02.541Z,15.30
2019-01-22T11:50:02.559Z,15.30
2019-01-22T11:51:02.569Z,14.30
2019-01-22T11:52:02.584Z,15.80
2019-01-22T11:53:02.592Z,14.40
2019-01-22T11:54:02.689Z,14.10
2019-01-22T11:55:02.623Z,13.60
2019-01-22T11:56:02.634Z,14.40
2019-01-22T11:57:02.648Z,13.70
2019-01-22T11:58:02.663Z,13.80
2019-01-22T11:59:02.676Z,13.90
2019-01-22T12:00:02.689Z,15.00
2019-01-22T12:01:02.705Z,14.10
2019-01-22T12:02:03.067Z,13.30
2019-01-22T12:03:02.729Z,14.30
2019-01-22T12:04:02.744Z,14.30
2019-01-22T12:05:02.757Z,13.90
2019-01-22T12:06:02.769Z,13.60
2019-01-22T12:07:02.785Z,13.70
2019-01-22T12:08:02.797Z,14.20
2019-01-22T12:09:02.827Z,14.30
2019-01-22T12:10:02.824Z,14.60
2019-01-22T12:11:02.838Z,13.40
2019-01-22T12:12:02.851Z,13.90
2019-01-22T12:13:02.864Z,13.50
2019-01-22T12:14:02.878Z,13.30
2019-01-22T12:15:02.897Z,13.50
2019-01-22T12:16:02.905Z,13.70
2019-01-22T12:17:02.920Z,13.20
2019-01-22T12:18:02.938Z,13.90
2019-01-22T12:19:02.949Z,13.20
2019-01-22T12:20:02.962Z,13.70
2019-01-22T12:21:02.974Z,12.70
2019-01-22T12:22:02.990Z,13.90
2019-01-22T12:23:03.004Z,13.30
2019-01-22T12:24:03.018Z,14.60
2019-01-22T12:25:03.034Z,13.80
2019-01-22T12:26:03.048Z,13.50
2019-01-22T12:27:03.062Z,12.60
2019-01-22T12:28:03.071Z,13.80
2019-01-22T12:29:03.086Z,12.70
2019-01-22T12:30:03.100Z,13.80
2019-01-22T12:31:03.117Z,11.90
2019-01-22T12:32:03.129Z,12.30
2019-01-22T12:33:03.146Z,13.60
2019-01-22T12:34:03.158Z,13.10
2019-01-22T12:35:03.171Z,11.80
2019-01-22T12:36:03.189Z,12.30
2019-01-22T12:37:03.198Z,13.40
2019-01-22T12:38:03.212Z,12.30
2019-01-22T12:39:03.228Z,12.90
2019-01-22T12:40:03.238Z,17.90
2019-01-22T12:41:03.253Z,20.50
2019-01-22T12:42:03.268Z,15.70
2019-01-22T12:43:03.282Z,44.60
2019-01-22T12:44:03.301Z,18.10
2019-01-22T12:45:03.308Z,21.60
2019-01-22T12:46:03.324Z,13.30
2019-01-22T12:47:03.341Z,12.70
2019-01-22T12:48:03.362Z,11.00
2019-01-22T12:49:03.364Z,11.10
2019-01-22T12:50:03.383Z,11.60
2019-01-22T12:51:03.396Z,11.30
2019-01-22T12:52:03.410Z,11.30
2019-01-22T12:53:03.423Z,11.30